Terminal Aerodrome Forecast
Issued by NWS

Home | Current Version | Previous Version | Text Only | Print | Product List | Glossary On
Versions: 1 2 3 4 5 6 7 8 9 10 11 12 13 14
000
FTUS45 KRIW 252000 AAA
TAFJAC
TAF AMD
KJAC 252026Z 2520/2618 21008KT P6SM SCT100
     FM260400 21007KT P6SM VCSH SCT060 BKN100
     FM261500 21012KT P6SM VCSH BKN060
      AMD LTD TO CLD VIS AND WIND=

USA.gov is the U.S. government's official web portal to all federal, state and local government web resources and services.